Sensation — C6FM8 — position and weather

sailwx.info

Track history (hours):
 
Tides and Currents Weather Stations Pressure Air Temp Water Temp Dewpoint Dewpoint Depression Visibility Wind Speed Wind Dir Waves Ship Positions

Sensation

Last reported at 2020-Sep-24 14:00 UTC. Time now 2020-Sep-28 12:41 UTC.
Position N 26°33' W 079°29'.

Type: Passenger vessel. MMSI: 309697000.

Date/timePositionNaut miles runAvg speedWind from/ knotsBaromVisibWave heightAir tempDewpointWater temp
2020-Sep-24 14:00N 26°33' W 079°29'5 0.4
2020-Sep-24 02:29N 26°38' W 079°28'712.9
2020-Sep-24 01:55N 26°30' W 079°27'  
2020-Sep-19 20:18N 26°40' W 079°28'13 9.8
2020-Sep-19 19:00N 26°27' W 079°28'10 6.8
2020-Sep-19 17:30N 26°17' W 079°27'8 8.4
2020-Sep-19 16:30N 26°08' W 079°25'28 2.9
2020-Sep-19 06:36N 26°37' W 079°29'2113.0
2020-Sep-19 05:00N 26°16' W 079°27'5 9.9
2020-Sep-19 04:30N 26°12' W 079°23'10 4.6
2020-Sep-19 02:23N 26°12' W 079°12'3 3.5
2020-Sep-19 01:28N 26°12' W 079°08'9 4.3
2020-Sep-18 23:21N 26°11' W 078°58'4 4.4
2020-Sep-18 22:30N 26°09' W 078°54'  
Track history (hours):
 
Tides and Currents Weather Stations Pressure Air Temp Water Temp Dewpoint Dewpoint Depression Visibility Wind Speed Wind Dir Waves Ship Positions

Sensation

Last reported at 2020-Sep-24 14:00 UTC. Time now 2020-Sep-28 12:41 UTC.
Position N 26°33' W 079°29'.

Type: Passenger vessel. MMSI: 309697000.

Date/timePositionNaut miles runAvg speedWind from/ knotsBaromVisibWave heightAir tempDewpointWater temp
2020-Sep-24 14:00N 26°33' W 079°29'5 0.4
2020-Sep-24 02:29N 26°38' W 079°28'712.9
2020-Sep-24 01:55N 26°30' W 079°27'  
2020-Sep-19 20:18N 26°40' W 079°28'13 9.8
2020-Sep-19 19:00N 26°27' W 079°28'10 6.8
2020-Sep-19 17:30N 26°17' W 079°27'8 8.4
2020-Sep-19 16:30N 26°08' W 079°25'28 2.9
2020-Sep-19 06:36N 26°37' W 079°29'2113.0
2020-Sep-19 05:00N 26°16' W 079°27'5 9.9
2020-Sep-19 04:30N 26°12' W 079°23'10 4.6
2020-Sep-19 02:23N 26°12' W 079°12'3 3.5
2020-Sep-19 01:28N 26°12' W 079°08'9 4.3
2020-Sep-18 23:21N 26°11' W 078°58'4 4.4
2020-Sep-18 22:30N 26°09' W 078°54'  

Dump ship's entire track history